createdAt,value
2022-11-08T00:00:24.655Z,10.12
2022-11-08T00:02:28.461Z,10.09
2022-11-08T00:04:32.510Z,10.09
2022-11-08T00:06:54.240Z,10.08
2022-11-08T00:09:15.267Z,10.06
2022-11-08T00:11:36.102Z,10.05
2022-11-08T00:14:00.037Z,10.03
2022-11-08T00:16:03.759Z,10.03
2022-11-08T00:18:08.232Z,10.03
2022-11-08T00:20:12.756Z,10.02
2022-11-08T00:22:17.216Z,10.01
2022-11-08T00:24:21.950Z,10.01
2022-11-08T00:26:25.630Z,9.97
2022-11-08T00:28:29.369Z,9.97
2022-11-08T00:30:34.549Z,9.96
2022-11-08T00:32:38.251Z,9.94
2022-11-08T00:34:41.941Z,9.92
2022-11-08T00:36:45.782Z,9.91
2022-11-08T00:38:49.434Z,9.92
2022-11-08T00:40:53.131Z,9.92
2022-11-08T00:42:56.758Z,9.93
2022-11-08T00:45:00.588Z,9.92
2022-11-08T00:47:06.214Z,9.91
2022-11-08T00:49:10.694Z,9.91
2022-11-08T00:51:15.128Z,9.90
2022-11-08T00:53:18.817Z,9.89
2022-11-08T00:55:22.463Z,9.90
2022-11-08T00:57:41.169Z,9.89
2022-11-08T00:59:49.081Z,9.89
2022-11-08T01:01:52.492Z,9.88
2022-11-08T01:03:57.402Z,9.88
2022-11-08T01:06:06.730Z,9.88
2022-11-08T01:08:10.693Z,9.88
2022-11-08T01:10:13.979Z,9.89
2022-11-08T01:12:17.475Z,9.87
2022-11-08T01:14:20.931Z,9.86
2022-11-08T01:16:26.310Z,9.87
2022-11-08T01:18:29.718Z,9.88
2022-11-08T01:20:34.572Z,9.85
2022-11-08T01:22:37.862Z,9.82
2022-11-08T01:24:41.210Z,9.82
2022-11-08T01:26:44.454Z,9.80
2022-11-08T01:28:48.664Z,9.82
2022-11-08T01:30:52.079Z,9.82
2022-11-08T01:32:55.916Z,9.80
2022-11-08T01:34:59.144Z,9.78
2022-11-08T01:37:03.959Z,9.78
2022-11-08T01:39:07.211Z,9.76
2022-11-08T01:41:13.575Z,9.75
2022-11-08T01:43:37.000Z,9.72
2022-11-08T01:46:17.496Z,9.71
2022-11-08T01:48:20.924Z,9.71
2022-11-08T01:50:24.385Z,9.70
2022-11-08T01:52:36.584Z,9.70
2022-11-08T01:54:45.801Z,9.64
2022-11-08T01:56:49.841Z,9.60
2022-11-08T01:58:56.614Z,9.57
2022-11-08T02:01:03.317Z,9.55
2022-11-08T02:03:09.150Z,9.54
2022-11-08T02:05:25.983Z,9.54
2022-11-08T02:07:31.481Z,9.54
2022-11-08T02:09:39.424Z,9.55
2022-11-08T02:11:44.374Z,9.56
2022-11-08T02:13:47.714Z,9.57
2022-11-08T02:15:51.266Z,9.57
2022-11-08T02:17:55.300Z,9.56
2022-11-08T02:19:58.612Z,9.58
2022-11-08T02:22:08.315Z,9.59
2022-11-08T02:24:15.206Z,9.59
2022-11-08T02:26:20.764Z,9.61
2022-11-08T02:28:24.058Z,9.62
2022-11-08T02:30:34.009Z,9.63
2022-11-08T02:32:40.638Z,9.62
2022-11-08T02:34:48.116Z,9.61
2022-11-08T02:36:51.981Z,9.62
2022-11-08T02:38:58.737Z,9.61
2022-11-08T02:41:03.533Z,9.61
2022-11-08T02:43:06.821Z,9.60
2022-11-08T02:45:11.339Z,9.59
2022-11-08T02:47:15.153Z,9.60
2022-11-08T02:49:19.094Z,9.63
2022-11-08T02:51:22.401Z,9.63
2022-11-08T02:53:25.733Z,9.59
2022-11-08T02:55:30.312Z,9.51
2022-11-08T02:57:35.067Z,9.45
2022-11-08T02:59:38.396Z,9.39
2022-11-08T03:01:41.925Z,9.32
2022-11-08T03:03:45.348Z,9.22
2022-11-08T03:05:48.764Z,9.13
2022-11-08T03:07:52.129Z,9.05
2022-11-08T03:09:55.372Z,8.92
2022-11-08T03:11:58.809Z,8.85
2022-11-08T03:14:03.393Z,8.75
2022-11-08T03:16:07.755Z,8.68
2022-11-08T03:18:11.114Z,8.61
2022-11-08T03:20:14.446Z,8.58
2022-11-08T03:22:17.700Z,8.54
2022-11-08T03:24:21.034Z,8.53
2022-11-08T03:26:24.252Z,8.54
2022-11-08T03:28:29.291Z,8.55
2022-11-08T03:30:34.891Z,8.57
2022-11-08T03:32:38.077Z,8.61
2022-11-08T03:34:41.389Z,8.61
2022-11-08T03:36:44.794Z,8.63
2022-11-08T03:38:48.020Z,8.69
2022-11-08T03:40:51.341Z,8.75
2022-11-08T03:42:56.719Z,8.78
2022-11-08T03:44:59.911Z,8.81
2022-11-08T03:47:04.579Z,8.85
2022-11-08T03:49:07.918Z,8.90
2022-11-08T03:51:11.258Z,8.90
2022-11-08T03:53:14.509Z,8.92
2022-11-08T03:55:18.993Z,8.94
2022-11-08T03:57:22.184Z,8.93
2022-11-08T03:59:25.380Z,8.94
2022-11-08T04:01:28.821Z,8.94
2022-11-08T04:03:34.265Z,8.94
2022-11-08T04:05:37.541Z,8.94
2022-11-08T04:07:41.318Z,8.94
2022-11-08T04:09:44.509Z,8.95
2022-11-08T04:12:05.331Z,8.97
2022-11-08T04:14:26.962Z,9.01
2022-11-08T04:16:32.619Z,9.04
2022-11-08T04:18:55.241Z,9.05
2022-11-08T04:21:19.199Z,9.07
2022-11-08T04:23:22.644Z,9.08
2022-11-08T04:25:26.744Z,9.09
2022-11-08T04:27:32.230Z,9.11
2022-11-08T04:29:35.484Z,9.09
2022-11-08T04:31:39.137Z,9.07
2022-11-08T04:33:44.420Z,9.06
2022-11-08T04:35:48.047Z,9.06
2022-11-08T04:37:51.367Z,9.06
2022-11-08T04:39:54.642Z,9.09
2022-11-08T04:42:02.174Z,9.09
2022-11-08T04:44:05.989Z,9.06
2022-11-08T04:46:11.196Z,9.07
2022-11-08T04:48:14.554Z,9.09
2022-11-08T04:50:19.388Z,9.11
2022-11-08T04:52:22.731Z,9.09
2022-11-08T04:54:26.087Z,9.10
2022-11-08T04:56:31.062Z,9.15
2022-11-08T04:58:35.839Z,9.21
2022-11-08T05:00:39.084Z,9.27
2022-11-08T05:02:42.682Z,9.32
2022-11-08T05:04:46.049Z,9.37
2022-11-08T05:06:50.789Z,9.41
2022-11-08T05:08:55.856Z,9.45
2022-11-08T05:11:03.163Z,9.48
2022-11-08T05:13:06.362Z,9.51
2022-11-08T05:15:10.600Z,9.55
2022-11-08T05:17:13.853Z,9.59
2022-11-08T05:19:37.338Z,9.64
2022-11-08T05:21:58.053Z,9.63
2022-11-08T05:24:03.033Z,9.66
2022-11-08T05:26:06.901Z,9.67
2022-11-08T05:28:10.251Z,9.68
2022-11-08T05:30:13.922Z,9.66
2022-11-08T05:32:17.217Z,9.60
2022-11-08T05:34:20.531Z,9.55
2022-11-08T05:36:23.751Z,9.52
2022-11-08T05:38:27.084Z,9.51
2022-11-08T05:40:33.482Z,9.48
2022-11-08T05:42:36.883Z,9.48
2022-11-08T05:44:40.238Z,9.47
2022-11-08T05:46:44.086Z,9.47
2022-11-08T05:48:50.040Z,9.46
2022-11-08T05:50:53.382Z,9.47
2022-11-08T05:52:56.686Z,9.47
2022-11-08T05:55:00.136Z,9.46
2022-11-08T05:57:04.944Z,9.46
2022-11-08T05:59:08.165Z,9.46
2022-11-08T06:01:13.094Z,9.47
2022-11-08T06:03:20.917Z,9.48
2022-11-08T06:05:26.274Z,9.52
2022-11-08T06:07:30.022Z,9.52
2022-11-08T06:09:33.375Z,9.48
2022-11-08T06:11:36.575Z,9.43
2022-11-08T06:13:41.701Z,9.43
2022-11-08T06:15:44.931Z,9.39
2022-11-08T06:17:48.265Z,9.36
2022-11-08T06:19:51.584Z,9.34
2022-11-08T06:21:54.848Z,9.35
2022-11-08T06:23:58.126Z,9.35
2022-11-08T06:26:01.920Z,9.37
2022-11-08T06:28:05.429Z,9.41
2022-11-08T06:30:11.282Z,9.46
2022-11-08T06:32:15.137Z,9.52
2022-11-08T06:34:18.607Z,9.56
2022-11-08T06:36:21.961Z,9.61
2022-11-08T06:38:25.466Z,9.64
2022-11-08T06:40:28.862Z,9.68
2022-11-08T06:42:32.120Z,9.70
2022-11-08T06:44:35.612Z,9.70
2022-11-08T06:46:40.231Z,9.73
2022-11-08T06:48:43.632Z,9.73
2022-11-08T06:50:46.970Z,9.70
2022-11-08T06:52:57.152Z,9.69
2022-11-08T06:55:01.781Z,9.67
2022-11-08T06:57:05.279Z,9.68
2022-11-08T06:59:08.771Z,9.69
2022-11-08T07:01:13.514Z,9.69
2022-11-08T07:03:19.167Z,9.68
2022-11-08T07:05:23.410Z,9.64
2022-11-08T07:07:26.739Z,9.57
2022-11-08T07:09:30.243Z,9.56
2022-11-08T07:11:33.571Z,9.54
2022-11-08T07:13:36.984Z,9.53
2022-11-08T07:15:41.180Z,9.51
2022-11-08T07:17:44.811Z,9.51
2022-11-08T07:19:49.732Z,9.53
2022-11-08T07:21:53.101Z,9.54
2022-11-08T07:23:56.421Z,9.57
2022-11-08T07:26:02.736Z,9.59
2022-11-08T07:28:08.115Z,9.60
2022-11-08T07:30:12.644Z,9.61
2022-11-08T07:32:15.982Z,9.61
2022-11-08T07:34:19.266Z,9.61
2022-11-08T07:36:24.088Z,9.62
2022-11-08T07:38:27.431Z,9.62
2022-11-08T07:40:30.805Z,9.61
2022-11-08T07:42:57.200Z,9.61
2022-11-08T07:45:00.908Z,9.63
2022-11-08T07:47:04.196Z,9.64
2022-11-08T07:49:07.968Z,9.65
2022-11-08T07:51:11.376Z,9.64
2022-11-08T07:53:16.478Z,9.63
2022-11-08T07:55:20.321Z,9.64
2022-11-08T07:57:23.648Z,9.63
2022-11-08T07:59:26.960Z,9.62
2022-11-08T08:01:30.525Z,9.61
2022-11-08T08:03:34.288Z,9.62
2022-11-08T08:05:39.248Z,9.63
2022-11-08T08:07:42.613Z,9.63
2022-11-08T08:09:47.468Z,9.64
2022-11-08T08:11:50.857Z,9.65
2022-11-08T08:13:56.071Z,9.67
2022-11-08T08:16:01.695Z,9.69
2022-11-08T08:18:06.832Z,9.72
2022-11-08T08:20:11.256Z,9.74
2022-11-08T08:22:14.763Z,9.75
2022-11-08T08:24:18.187Z,9.75
2022-11-08T08:26:23.266Z,9.74
2022-11-08T08:28:26.657Z,9.74
2022-11-08T08:30:31.504Z,9.73
2022-11-08T08:32:36.169Z,9.73
2022-11-08T08:34:39.931Z,9.73
2022-11-08T08:36:43.504Z,9.73
2022-11-08T08:38:47.310Z,9.74
2022-11-08T08:40:51.581Z,9.73
2022-11-08T08:42:56.935Z,9.74
2022-11-08T08:45:00.591Z,9.73
2022-11-08T08:47:04.384Z,9.74
2022-11-08T08:49:08.375Z,9.73
2022-11-08T08:51:12.361Z,9.74
2022-11-08T08:53:16.461Z,9.76
2022-11-08T08:55:20.421Z,9.79
2022-11-08T08:57:24.090Z,9.83
2022-11-08T09:01:53.837Z,9.92
2022-11-08T09:03:58.494Z,9.91
2022-11-08T09:06:04.488Z,9.92
2022-11-08T09:08:08.714Z,9.89
2022-11-08T09:10:13.794Z,9.88
2022-11-08T09:12:18.080Z,9.83
2022-11-08T09:14:22.416Z,9.82
2022-11-08T09:16:28.250Z,9.86
2022-11-08T09:18:33.385Z,9.91
2022-11-08T09:20:37.884Z,9.98
2022-11-08T09:22:43.022Z,10.05
2022-11-08T09:24:47.068Z,10.11
2022-11-08T09:26:51.728Z,10.22
2022-11-08T09:28:56.349Z,10.33
2022-11-08T09:31:05.827Z,10.45
2022-11-08T09:33:12.021Z,10.55
2022-11-08T09:35:17.330Z,10.60
2022-11-08T09:37:22.173Z,10.62
2022-11-08T09:39:26.667Z,10.66
2022-11-08T09:41:55.499Z,10.71
2022-11-08T09:44:15.606Z,10.79
2022-11-08T09:46:29.262Z,10.87
2022-11-08T09:48:39.498Z,10.94
2022-11-08T09:50:47.210Z,10.93
2022-11-08T09:52:57.160Z,10.94
2022-11-08T09:55:15.990Z,10.94
2022-11-08T09:57:26.860Z,10.95
2022-11-08T09:59:38.994Z,10.97
2022-11-08T10:01:45.357Z,10.92
2022-11-08T10:03:56.397Z,10.91
2022-11-08T10:06:37.300Z,10.92
2022-11-08T10:09:04.184Z,10.97
2022-11-08T10:11:21.241Z,11.07
2022-11-08T10:13:39.130Z,11.15
2022-11-08T10:15:54.768Z,11.20
2022-11-08T10:18:17.396Z,11.26
2022-11-08T10:20:35.208Z,11.34
2022-11-08T10:22:52.077Z,11.50
2022-11-08T10:25:02.533Z,11.68
2022-11-08T10:27:21.252Z,11.88
2022-11-08T10:29:29.291Z,12.06
2022-11-08T10:31:35.255Z,12.21
2022-11-08T10:33:47.348Z,12.32
2022-11-08T10:36:02.056Z,12.47
2022-11-08T10:38:19.384Z,12.59
2022-11-08T10:40:39.190Z,12.62
2022-11-08T10:42:48.118Z,12.66
2022-11-08T10:44:52.090Z,12.71
2022-11-08T10:47:02.062Z,12.75
2022-11-08T10:49:14.502Z,12.77
2022-11-08T10:51:19.800Z,12.82
2022-11-08T10:53:28.033Z,12.84
2022-11-08T10:55:37.128Z,12.81
2022-11-08T10:57:45.338Z,12.79
2022-11-08T10:59:49.359Z,12.75
2022-11-08T11:01:53.192Z,12.67
2022-11-08T11:03:57.063Z,12.61
2022-11-08T11:06:02.892Z,12.58
2022-11-08T11:08:19.278Z,12.53
2022-11-08T11:10:26.279Z,12.53
2022-11-08T11:12:31.372Z,12.53
2022-11-08T11:14:35.408Z,12.46
2022-11-08T11:16:39.805Z,12.39
2022-11-08T11:18:50.928Z,12.28
2022-11-08T11:21:04.401Z,12.14
2022-11-08T11:23:13.146Z,12.04
2022-11-08T11:25:19.335Z,11.94
2022-11-08T11:27:28.244Z,11.87
2022-11-08T11:29:33.983Z,11.78
2022-11-08T11:31:39.480Z,11.73
2022-11-08T11:33:46.764Z,11.68
2022-11-08T11:35:56.468Z,11.63
2022-11-08T11:38:02.925Z,11.55
2022-11-08T11:40:20.765Z,11.48
2022-11-08T11:42:45.171Z,11.48
2022-11-08T11:45:01.978Z,11.56
2022-11-08T11:47:15.581Z,11.65
2022-11-08T11:49:22.305Z,11.72
2022-11-08T11:51:29.460Z,11.78
2022-11-08T11:53:39.037Z,11.80
2022-11-08T11:55:59.304Z,11.81
2022-11-08T11:58:13.083Z,11.85
2022-11-08T12:00:17.843Z,11.83
2022-11-08T12:02:53.272Z,11.76
2022-11-08T12:05:23.507Z,11.71
2022-11-08T12:07:28.852Z,11.66
2022-11-08T12:09:45.554Z,11.65
2022-11-08T12:12:00.303Z,11.63
2022-11-08T12:14:26.561Z,11.62
2022-11-08T12:16:37.555Z,11.58
2022-11-08T12:18:58.392Z,11.56
2022-11-08T12:21:10.783Z,11.57
2022-11-08T12:23:38.995Z,11.63
2022-11-08T12:25:52.891Z,11.68
2022-11-08T12:28:07.947Z,11.74
2022-11-08T12:30:17.417Z,11.76
2022-11-08T12:32:36.485Z,11.74
2022-11-08T12:34:49.714Z,11.71
2022-11-08T12:37:14.925Z,11.68
2022-11-08T12:39:30.796Z,11.64
2022-11-08T12:41:46.396Z,11.60
2022-11-08T12:44:10.347Z,11.59
2022-11-08T12:46:18.670Z,11.58
2022-11-08T12:48:35.606Z,11.55
2022-11-08T12:50:49.029Z,11.52
2022-11-08T12:53:28.842Z,11.50
2022-11-08T12:55:38.904Z,11.48
2022-11-08T12:57:44.587Z,11.47
2022-11-08T12:59:57.987Z,11.44
2022-11-08T13:02:04.901Z,11.44
2022-11-08T13:04:30.091Z,11.47
2022-11-08T13:06:43.423Z,11.48
2022-11-08T13:08:57.750Z,11.51
2022-11-08T13:11:14.116Z,11.56
2022-11-08T13:13:29.878Z,11.58
2022-11-08T13:15:36.620Z,11.59
2022-11-08T13:17:41.306Z,11.55
2022-11-08T13:20:05.842Z,11.51
2022-11-08T13:26:24.010Z,11.36
2022-11-08T13:28:46.117Z,11.33
2022-11-08T13:31:04.194Z,11.31
2022-11-08T13:33:23.098Z,11.31
2022-11-08T13:35:33.149Z,11.30
2022-11-08T13:37:55.697Z,11.28
2022-11-08T13:40:18.859Z,11.26
2022-11-08T13:42:40.644Z,11.25
2022-11-08T13:45:00.459Z,11.25
2022-11-08T13:47:05.719Z,11.23
2022-11-08T13:49:20.993Z,11.25
2022-11-08T13:51:27.827Z,11.28
2022-11-08T13:53:47.610Z,11.30
2022-11-08T13:55:56.999Z,11.35
2022-11-08T13:58:05.257Z,11.45
2022-11-08T14:00:33.924Z,11.51
2022-11-08T14:02:41.248Z,11.57
2022-11-08T14:04:46.189Z,11.62
2022-11-08T14:07:01.718Z,11.64
2022-11-08T14:09:20.809Z,11.60
2022-11-08T14:11:40.773Z,11.57
2022-11-08T14:14:21.761Z,11.59
2022-11-08T14:16:30.962Z,11.56
2022-11-08T14:18:39.480Z,11.53
2022-11-08T14:20:45.053Z,11.51
2022-11-08T14:22:50.585Z,11.46
2022-11-08T14:24:59.923Z,11.41
2022-11-08T14:27:04.318Z,11.36
2022-11-08T14:29:10.627Z,11.32
2022-11-08T14:31:27.101Z,11.30
2022-11-08T14:33:31.861Z,11.23
2022-11-08T14:35:37.068Z,11.17
2022-11-08T14:37:44.391Z,11.15
2022-11-08T14:39:49.171Z,11.13
2022-11-08T14:41:55.933Z,11.11
2022-11-08T14:44:02.339Z,11.06
2022-11-08T14:46:13.635Z,11.02
2022-11-08T14:48:23.703Z,10.99
2022-11-08T14:50:32.140Z,10.96
2022-11-08T14:52:37.592Z,10.93
2022-11-08T14:54:43.994Z,10.89
2022-11-08T14:56:50.763Z,10.89
2022-11-08T14:58:56.438Z,10.85
2022-11-08T15:01:03.866Z,10.83
2022-11-08T15:03:08.509Z,10.79
2022-11-08T15:05:28.651Z,10.76
2022-11-08T15:07:33.698Z,10.73
2022-11-08T15:09:39.236Z,10.69
2022-11-08T15:11:46.520Z,10.65
2022-11-08T15:13:54.740Z,10.65
2022-11-08T15:16:04.468Z,10.62
2022-11-08T15:18:15.297Z,10.61
2022-11-08T15:20:23.598Z,10.58
2022-11-08T15:22:30.729Z,10.55
2022-11-08T15:24:40.995Z,10.53
2022-11-08T15:27:07.015Z,10.49
2022-11-08T15:29:19.983Z,10.45
2022-11-08T15:31:23.647Z,10.44
2022-11-08T15:33:31.820Z,10.42
2022-11-08T15:35:38.689Z,10.42
2022-11-08T15:37:44.075Z,10.40
2022-11-08T15:39:49.521Z,10.38
2022-11-08T15:42:04.967Z,10.37
2022-11-08T15:44:22.444Z,10.34
2022-11-08T15:46:30.937Z,10.33
2022-11-08T15:48:35.572Z,10.31
2022-11-08T15:50:41.685Z,10.27
2022-11-08T15:52:47.404Z,10.26
2022-11-08T15:54:53.033Z,10.23
2022-11-08T15:56:58.582Z,10.19
2022-11-08T15:59:03.247Z,10.16
2022-11-08T16:01:08.466Z,10.14
2022-11-08T16:03:12.923Z,10.11
2022-11-08T16:05:21.658Z,10.11
2022-11-08T16:07:26.676Z,10.10
2022-11-08T16:09:30.577Z,10.08
2022-11-08T16:11:39.064Z,10.06
2022-11-08T16:13:43.224Z,10.05
2022-11-08T16:15:48.779Z,10.03
2022-11-08T16:17:52.718Z,10.02
2022-11-08T16:19:57.305Z,10.00
2022-11-08T16:22:07.383Z,9.98
2022-11-08T16:24:11.417Z,9.97
2022-11-08T16:26:18.514Z,9.96
2022-11-08T16:28:35.185Z,9.94
2022-11-08T16:30:39.008Z,9.92
2022-11-08T16:32:44.032Z,9.92
2022-11-08T16:34:47.762Z,9.91
2022-11-08T16:36:52.180Z,9.90
2022-11-08T16:38:57.557Z,9.89
2022-11-08T16:41:01.252Z,9.90
2022-11-08T16:43:04.889Z,9.89
2022-11-08T16:45:10.978Z,9.88
2022-11-08T16:47:19.292Z,9.89
2022-11-08T16:49:27.066Z,9.90
2022-11-08T16:51:30.897Z,9.91
2022-11-08T16:53:37.124Z,9.90
2022-11-08T16:55:40.880Z,9.91
2022-11-08T16:57:44.926Z,9.91
2022-11-08T16:59:48.659Z,9.90
2022-11-08T17:01:54.312Z,9.90
2022-11-08T17:03:58.112Z,9.89
2022-11-08T17:06:02.346Z,9.89
2022-11-08T17:08:06.613Z,9.89
2022-11-08T17:10:14.053Z,9.89
2022-11-08T17:12:18.205Z,9.88
2022-11-08T17:14:22.296Z,9.89
2022-11-08T17:16:27.252Z,9.90
2022-11-08T17:18:32.315Z,9.92
2022-11-08T17:20:37.524Z,9.93
2022-11-08T17:22:41.416Z,9.95
2022-11-08T17:24:45.452Z,9.95
2022-11-08T17:26:49.261Z,9.94
2022-11-08T17:28:56.533Z,9.95
2022-11-08T17:31:10.642Z,9.95
2022-11-08T17:33:14.688Z,9.95
2022-11-08T17:35:19.704Z,9.96
2022-11-08T17:37:23.560Z,9.98
2022-11-08T17:39:27.328Z,10.00
2022-11-08T17:41:31.725Z,10.01
2022-11-08T17:43:36.054Z,10.01
2022-11-08T17:45:41.152Z,10.02
2022-11-08T17:47:44.995Z,10.02
2022-11-08T17:49:48.744Z,10.02
2022-11-08T17:51:54.030Z,10.02
2022-11-08T17:53:58.456Z,10.01
2022-11-08T17:56:04.623Z,10.02
2022-11-08T17:58:09.862Z,10.01
2022-11-08T18:00:16.535Z,10.01
2022-11-08T18:02:21.016Z,10.02
2022-11-08T18:04:26.557Z,10.04
2022-11-08T18:06:31.302Z,10.03
2022-11-08T18:08:38.983Z,10.04
2022-11-08T18:10:47.785Z,10.03
2022-11-08T18:12:51.956Z,10.03
2022-11-08T18:14:56.747Z,10.02
2022-11-08T18:17:00.478Z,10.01
2022-11-08T18:19:07.072Z,10.02
2022-11-08T18:21:11.761Z,10.03
2022-11-08T18:23:15.599Z,10.02
2022-11-08T18:25:23.491Z,10.02
2022-11-08T18:27:28.196Z,10.02
2022-11-08T18:29:34.709Z,10.02
2022-11-08T18:31:41.489Z,10.02
2022-11-08T18:33:46.671Z,10.04
2022-11-08T18:35:51.682Z,10.04
2022-11-08T18:37:57.904Z,10.05
2022-11-08T18:40:03.011Z,10.07
2022-11-08T18:42:09.378Z,10.06
2022-11-08T18:44:14.482Z,10.06
2022-11-08T18:46:20.204Z,10.06
2022-11-08T18:48:24.462Z,10.04
2022-11-08T18:50:28.614Z,10.03
2022-11-08T18:52:33.307Z,10.02
2022-11-08T18:54:37.245Z,10.00
2022-11-08T18:56:41.223Z,9.98
2022-11-08T18:58:47.979Z,9.96
2022-11-08T19:00:54.662Z,9.94
2022-11-08T19:02:59.339Z,9.91
2022-11-08T19:05:04.704Z,9.90
2022-11-08T19:07:11.193Z,9.87
2022-11-08T19:09:15.700Z,9.87
2022-11-08T19:11:23.212Z,9.88
2022-11-08T19:13:28.625Z,9.86
2022-11-08T19:15:33.880Z,9.85
2022-11-08T19:17:37.678Z,9.83
2022-11-08T19:19:41.931Z,9.81
2022-11-08T19:21:45.675Z,9.77
2022-11-08T19:23:50.772Z,9.76
2022-11-08T19:26:00.405Z,9.74
2022-11-08T19:28:04.545Z,9.73
2022-11-08T19:30:09.698Z,9.72
2022-11-08T19:32:15.879Z,9.71
2022-11-08T19:34:20.043Z,9.71
2022-11-08T19:36:25.505Z,9.70
2022-11-08T19:38:29.723Z,9.69
2022-11-08T19:40:33.452Z,9.65
2022-11-08T19:42:37.125Z,9.65
2022-11-08T19:44:41.426Z,9.65
2022-11-08T19:46:46.072Z,9.64
2022-11-08T19:48:53.039Z,9.64
2022-11-08T19:50:57.110Z,9.64
2022-11-08T19:53:06.679Z,9.64
2022-11-08T19:55:14.384Z,9.64
2022-11-08T19:57:20.427Z,9.63
2022-11-08T19:59:25.677Z,9.63
2022-11-08T20:01:36.313Z,9.65
2022-11-08T20:03:43.936Z,9.64
2022-11-08T20:05:53.271Z,9.62
2022-11-08T20:07:58.286Z,9.61
2022-11-08T20:10:02.828Z,9.62
2022-11-08T20:12:07.239Z,9.61
2022-11-08T20:14:14.317Z,9.62
2022-11-08T20:16:26.496Z,9.61
2022-11-08T20:18:30.122Z,9.62
2022-11-08T20:20:34.119Z,9.61
2022-11-08T20:22:41.250Z,9.63
2022-11-08T20:24:46.383Z,9.63
2022-11-08T20:26:50.418Z,9.62
2022-11-08T20:28:57.024Z,9.61
2022-11-08T20:31:04.455Z,9.60
2022-11-08T20:33:08.219Z,9.59
2022-11-08T20:35:11.896Z,9.59
2022-11-08T20:37:15.902Z,9.59
2022-11-08T20:39:23.447Z,9.59
2022-11-08T20:41:27.343Z,9.57
2022-11-08T20:43:33.179Z,9.59
2022-11-08T20:45:41.863Z,9.57
2022-11-08T20:47:48.260Z,9.58
2022-11-08T20:49:52.737Z,9.57
2022-11-08T20:51:58.146Z,9.57
2022-11-08T20:54:04.035Z,9.56
2022-11-08T20:56:12.357Z,9.57
2022-11-08T20:58:16.521Z,9.56
2022-11-08T21:00:51.877Z,9.55
2022-11-08T21:02:50.093Z,9.56
2022-11-08T21:04:53.604Z,9.55
2022-11-08T21:07:59.305Z,9.55
2022-11-08T21:09:37.331Z,9.54
2022-11-08T21:11:46.279Z,9.51
2022-11-08T21:13:50.273Z,9.51
2022-11-08T21:15:54.405Z,9.48
2022-11-08T21:17:58.281Z,9.47
2022-11-08T21:20:02.153Z,9.48
2022-11-08T21:22:17.866Z,9.47
2022-11-08T21:24:22.559Z,9.47
2022-11-08T21:26:27.485Z,9.47
2022-11-08T21:28:40.116Z,9.47
2022-11-08T21:31:02.054Z,9.48
2022-11-08T21:33:08.640Z,9.48
2022-11-08T21:35:12.802Z,9.47
2022-11-08T21:37:17.156Z,9.47
2022-11-08T21:39:21.455Z,9.48
2022-11-08T21:41:26.320Z,9.48
2022-11-08T21:43:37.117Z,9.48
2022-11-08T21:45:42.735Z,9.49
2022-11-08T21:47:52.361Z,9.48
2022-11-08T21:49:57.228Z,9.49
2022-11-08T21:52:04.316Z,9.47
2022-11-08T21:54:08.922Z,9.47
2022-11-08T21:56:13.340Z,9.48
2022-11-08T21:58:21.585Z,9.47
2022-11-08T22:00:29.114Z,9.48
2022-11-08T22:02:33.685Z,9.47
2022-11-08T22:04:41.097Z,9.47
2022-11-08T22:06:47.822Z,9.46
2022-11-08T22:08:52.553Z,9.44
2022-11-08T22:10:57.222Z,9.45
2022-11-08T22:13:01.465Z,9.44
2022-11-08T22:15:06.279Z,9.44
2022-11-08T22:17:11.830Z,9.44
2022-11-08T22:19:16.299Z,9.44
2022-11-08T22:21:37.647Z,9.44
2022-11-08T22:23:41.560Z,9.43
2022-11-08T22:25:45.346Z,9.44
2022-11-08T22:27:49.433Z,9.43
2022-11-08T22:29:53.568Z,9.44
2022-11-08T22:31:57.429Z,9.44
2022-11-08T22:34:02.874Z,9.45
2022-11-08T22:36:06.872Z,9.44
2022-11-08T22:38:10.622Z,9.44
2022-11-08T22:40:16.694Z,9.43
2022-11-08T22:42:20.553Z,9.44
2022-11-08T22:44:25.134Z,9.44
2022-11-08T22:46:28.930Z,9.44
2022-11-08T22:48:32.938Z,9.43
2022-11-08T22:50:51.067Z,9.41
2022-11-08T22:52:55.197Z,9.39
2022-11-08T22:54:59.328Z,9.38
2022-11-08T22:57:04.287Z,9.38
2022-11-08T22:59:08.013Z,9.37
2022-11-08T23:01:14.604Z,9.36
2022-11-08T23:03:18.696Z,9.34
2022-11-08T23:05:22.715Z,9.34
2022-11-08T23:07:28.145Z,9.32
2022-11-08T23:09:32.400Z,9.34
2022-11-08T23:11:53.707Z,9.32
2022-11-08T23:14:15.310Z,9.31
2022-11-08T23:16:35.671Z,9.32
2022-11-08T23:18:59.869Z,9.31
2022-11-08T23:21:21.188Z,9.30
2022-11-08T23:23:43.636Z,9.29
2022-11-08T23:25:47.747Z,9.30
2022-11-08T23:28:08.701Z,9.29
2022-11-08T23:30:32.994Z,9.29
2022-11-08T23:32:37.497Z,9.29
2022-11-08T23:34:41.465Z,9.31
2022-11-08T23:36:45.416Z,9.32
2022-11-08T23:38:52.936Z,9.34
2022-11-08T23:41:17.629Z,9.35
2022-11-08T23:43:39.166Z,9.32
2022-11-08T23:45:43.223Z,9.30
2022-11-08T23:47:47.688Z,9.28
2022-11-08T23:49:51.695Z,9.30
2022-11-08T23:51:56.365Z,9.29
2022-11-08T23:54:01.791Z,9.29
2022-11-08T23:56:06.027Z,9.29
2022-11-08T23:58:10.166Z,9.28
